Terminal Aerodrome Forecast
Issued by NWS Grand Forks, ND

Home | Current Version | Previous Version | Text Only | Print | Product List | Glossary Off
Versions: 1 2 3 4 5 6 7 8 9 10 11 12 13 14 15 16 17 18 19

798
FTUS43 KFGF 260520
TAFFAR
TAF
KFAR 260520Z 2606/2706 21010KT P6SM VCSH BKN050
     FM260800 24010KT P6SM BKN080
     FM261600 25012KT P6SM SCT120=

USA.gov is the U.S. government's official web portal to all federal, state and local government web resources and services.